Wetterstation Tischlerei-Herzog
Wetterdaten: aktuell Dienstag, 28.05.2024 12:35
Datum Zeit Temp. N Temp. S Temp. Htte Aussentemp. Temp. Bo Feuchte Htt Luftfeuchte Luftdruck Niederschl. Taupunkt
28.05.2024 12:35 18,1 C 18,1 C 17,7 C 18,1 C -7,2 C 20 % 32 % 1015,1 hPa 0,0 l/m 1,2 C
28.05.2024 11:35 16,8 C 18,6 C 17,0 C 16,8 C -6,8 C 25 % 33 % 1015,3 hPa 0,0 l/m 0,4 C
28.05.2024 10:35 16,9 C 17,3 C 16,0 C 16,9 C -7,6 C 25 % 36 % 1015,3 hPa 0,0 l/m 1,7 C
28.05.2024 09:35 14,5 C 14,7 C 14,4 C 14,5 C -3,0 C 37 % 46 % 1014,6 hPa 0,0 l/m 3,0 C
28.05.2024 08:35 13,8 C 14,4 C 14,0 C 13,8 C -3,0 C 43 % 47 % 1014,7 hPa 0,0 l/m 2,7 C
28.05.2024 07:35 12,6 C 13,1 C 13,1 C 12,6 C -3,0 C 52 % 50 % 1013,8 hPa 0,0 l/m 2,5 C
28.05.2024 06:35 12,4 C 12,9 C 13,0 C 12,4 C -3,0 C 62 % 57 % 1013,9 hPa 0,0 l/m 4,1 C
28.05.2024 05:35 12,5 C 12,8 C 13,0 C 12,5 C -3,0 C 63 % 62 % 1013,8 hPa 0,0 l/m 5,4 C
28.05.2024 04:35 12,7 C 13,1 C 13,3 C 12,7 C 77,3 C 63 % 73 % 1012,8 hPa 0,0 l/m 8,0 C
28.05.2024 03:35 13,1 C 13,3 C 13,6 C 13,1 C -5,0 C 59 % 74 % 1012,7 hPa 0,0 l/m 8,6 C
28.05.2024 02:35 13,2 C 13,7 C 14,0 C 13,2 C -6,4 C 54 % 63 % 1012,7 hPa 0,3 l/m 6,3 C
28.05.2024 01:35 13,4 C 14,3 C 14,3 C 13,4 C -6,4 C 52 % 59 % 1012,7 hPa 0,0 l/m 5,6 C
28.05.2024 00:35 14,1 C 14,5 C 14,5 C 14,1 C -6,0 C 52 % 59 % 1012,5 hPa 0,0 l/m 6,2 C
27.05.2024 23:35 14,6 C 15,3 C 15,3 C 14,6 C -8,0 C 49 % 56 % 1012,5 hPa 0,0 l/m 5,9 C
27.05.2024 22:29 15,5 C 16,6 C 16,6 C 15,5 C -8,0 C 41 % 53 % 1012,3 hPa 3,1 l/m 6,0 C
27.05.2024 21:29 17,5 C 18,4 C 18,2 C 17,5 C -8,0 C 31 % 46 % 1012,0 hPa 0,0 l/m 5,8 C
27.05.2024 20:29 18,7 C 19,5 C 19,3 C 18,7 C -7,6 C 25 % 42 % 1011,8 hPa 0,0 l/m 5,5 C
27.05.2024 19:29 19,6 C 20,6 C 20,0 C 19,6 C -8,0 C 21 % 40 % 1011,7 hPa 0,0 l/m 5,6 C
27.05.2024 18:29 21,0 C 22,6 C 22,9 C 21,0 C -6,8 C 20 % 33 % 1010,5 hPa 0,0 l/m 4,1 C
27.05.2024 17:29 22,2 C 21,7 C 21,6 C 21,7 C -7,6 C 20 % 36 % 1011,4 hPa 0,0 l/m 6,0 C
27.05.2024 16:29 23,3 C 22,9 C 22,7 C 22,9 C -7,2 C 20 % 29 % 1012,3 hPa 0,0 l/m 3,9 C
27.05.2024 15:29 23,3 C 22,6 C 22,6 C 22,6 C -6,0 C 20 % 31 % 1012,3 hPa 0,0 l/m 4,6 C
27.05.2024 14:29 25,3 C 22,5 C 22,8 C 22,5 C -6,4 C 20 % 28 % 1012,3 hPa 0,0 l/m 3,1 C
27.05.2024 13:29 24,3 C 22,4 C 22,5 C 22,4 C -7,2 C 20 % 27 % 1013,4 hPa 0,0 l/m 2,5 C
27.05.2024 13:04 23,6 C 23,7 C 22,3 C 23,6 C -7,2 C 20 % 23 % 1013,2 hPa 0,0 l/m 1,3 C
_ Min-Zeit 07:00 05:05 05:35 07:00 19:24 13:04 13:04 18:29 - 11:15
Minimum _ 12,3 C 12,8 C 13,0 C 12,3 C -8,0 C 20 % 23 % 1010,5 hPa - -0,1 C
_ Max-Zeit 18:04 18:09 18:09 18:09 04:35 04:25 03:55 10:25 22:24 03:15
Maximum _ 28,2 C 24,1 C 23,3 C 24,1 C 77,3 C 63 % 76 % 1015,5 hPa 1,0 l/m 8,9 C
Durchschnitt _ 17,5 C 17,7 C 17,5 C 17,3 C -5,4 C 36 % 45 % 1013,1 hPa #3,5 l/m 4,4 C
Tischlerei Herzog